Terminal Aerodrome Forecast
Issued by NWS Shreveport, LA

Home | Current Version | Previous Version | Text Only | Print | Product List | Glossary On
Versions: 1 2 3 4 5 6 7 8 9 10 11 12 13 14 15 16 17 18
000
FTUS44 KSHV 270614 AAA
TAFLFK
TAF AMD
KLFK 270614Z 2706/2806 00000KT 1SM BR BKN001
      TEMPO 2706/2708 3SM BR SCT001 OVC150
     FM270900 00000KT 1 1/2SM BR BKN001
      TEMPO 2710/2713 1/2SM FG OVC001
     FM271300 VRB03KT 4SM BR BKN004
     FM271500 VRB03KT P6SM BKN015
     FM271700 07005KT P6SM VCSH BKN035
     FM272000 10006KT P6SM VCTS BKN045CB
     FM280100 VRB03KT P6SM SCT045 SCT100 BKN150=

USA.gov is the U.S. government's official web portal to all federal, state and local government web resources and services.